createdAt,value
2022-10-20T00:00:43.967Z,7.95
2022-10-20T00:05:47.254Z,9.15
2022-10-20T00:10:57.998Z,6.93
2022-10-20T00:16:01.703Z,7.15
2022-10-20T00:21:08.507Z,7.15
2022-10-20T00:26:15.654Z,7.70
2022-10-20T00:31:20.113Z,7.35
2022-10-20T00:36:24.779Z,7.97
2022-10-20T00:41:30.815Z,7.22
2022-10-20T00:46:37.874Z,7.28
2022-10-20T00:51:41.302Z,7.85
2022-10-20T00:56:48.510Z,7.38
2022-10-20T01:01:52.113Z,7.30
2022-10-20T01:06:55.447Z,7.25
2022-10-20T01:12:08.622Z,7.25
2022-10-20T01:17:20.470Z,8.60
2022-10-20T01:22:35.847Z,9.50
2022-10-20T01:27:43.456Z,9.75
2022-10-20T01:33:13.201Z,9.57
2022-10-20T01:38:28.600Z,9.10
2022-10-20T01:43:36.825Z,8.70
2022-10-20T01:48:44.382Z,7.70
2022-10-20T01:53:47.717Z,7.13
2022-10-20T01:59:22.944Z,7.85
2022-10-20T02:04:35.150Z,7.75
2022-10-20T02:09:42.923Z,7.30
2022-10-20T02:14:50.423Z,7.18
2022-10-20T02:19:54.942Z,6.68
2022-10-20T02:24:58.243Z,7.20
2022-10-20T02:30:06.557Z,7.15
2022-10-20T02:35:14.443Z,5.85
2022-10-20T02:40:17.879Z,5.93
2022-10-20T02:45:22.724Z,5.32
2022-10-20T02:50:27.057Z,5.95
2022-10-20T02:55:30.342Z,6.88
2022-10-20T03:00:38.509Z,6.38
2022-10-20T03:05:44.512Z,5.93
2022-10-20T03:10:49.027Z,6.10
2022-10-20T03:15:53.644Z,6.68
2022-10-20T03:20:56.926Z,6.03
2022-10-20T03:26:03.834Z,5.97
2022-10-20T03:31:09.198Z,6.15
2022-10-20T03:36:12.899Z,5.82
2022-10-20T03:41:16.261Z,6.22
2022-10-20T03:46:20.915Z,5.75
2022-10-20T03:51:24.443Z,5.63
2022-10-20T03:56:27.785Z,6.30
2022-10-20T04:01:34.276Z,5.15
2022-10-20T04:06:37.897Z,4.88
2022-10-20T04:11:41.247Z,4.72
2022-10-20T04:16:45.943Z,4.75
2022-10-20T04:21:49.308Z,4.60
2022-10-20T04:26:52.842Z,4.80
2022-10-20T04:31:57.649Z,4.82
2022-10-20T04:37:00.857Z,4.28
2022-10-20T04:42:04.021Z,5.03
2022-10-20T04:47:08.632Z,4.97
2022-10-20T04:52:12.002Z,6.97
2022-10-20T04:57:15.625Z,6.45
2022-10-20T05:02:20.343Z,7.43
2022-10-20T05:07:26.331Z,7.07
2022-10-20T05:12:33.825Z,6.00
2022-10-20T05:17:38.929Z,6.55
2022-10-20T05:22:42.263Z,5.40
2022-10-20T05:27:45.468Z,5.40
2022-10-20T05:32:50.009Z,5.22
2022-10-20T05:37:53.831Z,6.65
2022-10-20T05:42:57.920Z,6.47
2022-10-20T05:48:02.663Z,7.82
2022-10-20T05:53:06.040Z,5.80
2022-10-20T05:58:09.281Z,5.43
2022-10-20T06:03:16.176Z,5.28
2022-10-20T06:08:22.406Z,5.57
2022-10-20T06:13:25.774Z,5.18
2022-10-20T06:18:30.448Z,6.30
2022-10-20T06:23:33.728Z,8.32
2022-10-20T06:28:38.721Z,7.80
2022-10-20T06:33:44.051Z,8.77
2022-10-20T06:38:48.481Z,6.75
2022-10-20T06:43:55.216Z,7.40
2022-10-20T06:49:01.775Z,7.07
2022-10-20T06:54:05.840Z,6.82
2022-10-20T06:59:09.156Z,7.75
2022-10-20T07:04:16.243Z,6.90
2022-10-20T07:09:20.850Z,7.90
2022-10-20T07:14:24.088Z,7.10
2022-10-20T07:19:28.969Z,7.43
2022-10-20T07:24:32.297Z,7.25
2022-10-20T07:29:35.550Z,7.65
2022-10-20T07:34:40.269Z,7.03
2022-10-20T07:39:43.604Z,6.18
2022-10-20T07:44:46.859Z,5.38
2022-10-20T07:49:51.608Z,4.38
2022-10-20T07:55:06.267Z,5.78
2022-10-20T08:00:19.138Z,4.60
2022-10-20T08:05:23.901Z,6.60
2022-10-20T08:10:27.257Z,6.03
2022-10-20T08:15:31.638Z,5.55
2022-10-20T08:20:42.617Z,6.25
2022-10-20T08:25:47.746Z,7.30
2022-10-20T08:30:51.067Z,5.93
2022-10-20T08:35:55.959Z,6.75
2022-10-20T08:41:00.590Z,5.60
2022-10-20T08:46:04.084Z,5.13
2022-10-20T08:51:13.988Z,6.72
2022-10-20T08:56:18.269Z,7.30
2022-10-20T09:01:24.240Z,6.20
2022-10-20T09:06:29.078Z,5.57
2022-10-20T09:11:40.377Z,4.90
2022-10-20T09:16:59.712Z,4.32
2022-10-20T09:22:08.312Z,4.82
2022-10-20T09:27:32.947Z,5.47
2022-10-20T09:32:52.653Z,5.10
2022-10-20T09:38:02.824Z,4.15
2022-10-20T09:43:11.886Z,4.35
2022-10-20T09:48:23.386Z,4.18
2022-10-20T09:53:30.712Z,3.75
2022-10-20T09:58:38.064Z,4.03
2022-10-20T10:03:44.958Z,4.00
2022-10-20T10:08:49.583Z,3.90
2022-10-20T10:13:54.162Z,3.22
2022-10-20T10:19:02.166Z,3.33
2022-10-20T10:24:28.178Z,2.97
2022-10-20T10:29:34.680Z,3.05
2022-10-20T10:34:49.136Z,3.30
2022-10-20T10:39:53.762Z,3.45
2022-10-20T10:45:03.981Z,2.92
2022-10-20T10:50:27.276Z,3.03
2022-10-20T10:55:54.384Z,2.90
2022-10-20T11:01:04.324Z,3.35
2022-10-20T11:06:19.978Z,3.33
2022-10-20T11:11:38.024Z,2.72
2022-10-20T11:16:47.325Z,2.50
2022-10-20T11:22:05.054Z,2.35
2022-10-20T11:27:14.193Z,2.72
2022-10-20T11:32:27.941Z,3.05
2022-10-20T11:37:37.901Z,2.55
2022-10-20T11:42:50.587Z,2.67
2022-10-20T11:48:01.659Z,2.58
2022-10-20T11:53:35.008Z,3.05
2022-10-20T11:59:05.973Z,2.88
2022-10-20T12:04:41.918Z,4.05
2022-10-20T12:10:02.586Z,3.35
2022-10-20T12:15:22.665Z,3.13
2022-10-20T12:20:51.146Z,4.80
2022-10-20T12:25:54.433Z,3.13
2022-10-20T12:31:01.016Z,3.30
2022-10-20T12:36:30.652Z,2.85
2022-10-20T12:41:36.537Z,2.80
2022-10-20T12:46:47.733Z,3.78
2022-10-20T12:51:54.843Z,3.55
2022-10-20T12:57:02.686Z,4.07
2022-10-20T13:02:44.091Z,3.75
2022-10-20T13:08:35.459Z,3.45
2022-10-20T13:13:52.373Z,3.10
2022-10-20T13:18:58.938Z,3.78
2022-10-20T13:24:14.033Z,3.00
2022-10-20T13:29:23.490Z,2.78
2022-10-20T13:34:33.934Z,3.45
2022-10-20T13:39:45.091Z,3.70
2022-10-20T13:44:59.699Z,4.82
2022-10-20T13:50:10.911Z,2.60
2022-10-20T13:55:19.616Z,2.85
2022-10-20T14:00:28.637Z,2.53
2022-10-20T14:05:40.933Z,3.50
2022-10-20T14:10:50.269Z,2.38
2022-10-20T14:15:55.940Z,2.00
2022-10-20T14:21:03.129Z,2.88
2022-10-20T14:26:09.083Z,2.35
2022-10-20T14:31:17.588Z,3.45
2022-10-20T14:36:28.635Z,3.50
2022-10-20T14:41:34.890Z,2.50
2022-10-20T14:46:41.098Z,2.58
2022-10-20T14:51:54.821Z,2.80
2022-10-20T14:56:59.694Z,2.63
2022-10-20T15:02:09.408Z,2.80
2022-10-20T15:07:18.320Z,2.58
2022-10-20T15:12:25.789Z,2.70
2022-10-20T15:17:35.607Z,4.55
2022-10-20T15:22:40.650Z,3.08
2022-10-20T15:27:44.115Z,3.78
2022-10-20T15:32:47.815Z,2.83
2022-10-20T15:37:53.816Z,2.50
2022-10-20T15:42:57.122Z,2.70
2022-10-20T15:48:00.554Z,2.72
2022-10-20T15:53:08.815Z,2.80
2022-10-20T15:58:13.946Z,2.92
2022-10-20T16:03:19.165Z,3.72
2022-10-20T16:08:23.898Z,3.55
2022-10-20T16:13:27.227Z,3.58
2022-10-20T16:18:30.533Z,4.47
2022-10-20T16:23:40.574Z,3.70
2022-10-20T16:28:47.318Z,3.30
2022-10-20T16:33:50.581Z,3.65
2022-10-20T16:38:57.988Z,3.55
2022-10-20T16:44:01.488Z,4.07
2022-10-20T16:49:04.882Z,4.55
2022-10-20T16:54:09.719Z,4.85
2022-10-20T16:59:13.234Z,4.60
2022-10-20T17:04:16.537Z,4.50
2022-10-20T17:09:21.297Z,4.25
2022-10-20T17:14:24.604Z,3.78
2022-10-20T17:19:28.059Z,3.92
2022-10-20T17:24:32.723Z,5.00
2022-10-20T17:29:36.184Z,4.63
2022-10-20T17:34:39.424Z,4.82
2022-10-20T17:39:44.113Z,4.55
2022-10-20T17:45:08.208Z,4.40
2022-10-20T17:50:12.150Z,4.72
2022-10-20T17:55:17.584Z,4.97
2022-10-20T18:00:26.979Z,4.82
2022-10-20T18:05:41.060Z,5.25
2022-10-20T18:10:45.809Z,4.63
2022-10-20T18:15:49.171Z,5.75
2022-10-20T18:20:56.317Z,5.70
2022-10-20T18:26:07.671Z,5.30
2022-10-20T18:31:17.488Z,5.72
2022-10-20T18:36:21.424Z,5.45
2022-10-20T18:41:28.560Z,6.68
2022-10-20T18:46:34.040Z,5.60
2022-10-20T18:51:38.446Z,5.85
2022-10-20T18:56:43.821Z,5.20
2022-10-20T19:01:48.438Z,4.68
2022-10-20T19:06:53.324Z,5.15
2022-10-20T19:11:58.154Z,4.25
2022-10-20T19:17:01.379Z,4.15
2022-10-20T19:22:05.210Z,4.97
2022-10-20T19:27:27.191Z,5.82
2022-10-20T19:32:30.863Z,6.43
2022-10-20T19:37:34.314Z,5.95
2022-10-20T19:42:39.676Z,7.35
2022-10-20T19:47:43.296Z,6.05
2022-10-20T19:52:46.562Z,6.03
2022-10-20T19:57:51.287Z,6.90
2022-10-20T20:02:54.660Z,5.90
2022-10-20T20:07:57.945Z,5.30
2022-10-20T20:13:03.291Z,6.45
2022-10-20T20:18:06.602Z,6.07
2022-10-20T20:23:10.293Z,7.80
2022-10-20T20:28:15.029Z,6.03
2022-10-20T20:33:18.422Z,6.38
2022-10-20T20:38:21.670Z,5.80
2022-10-20T20:43:26.425Z,5.45
2022-10-20T20:48:29.919Z,6.80
2022-10-20T20:58:38.983Z,7.45
2022-10-20T21:03:43.558Z,7.50
2022-10-20T21:08:48.746Z,7.82
2022-10-20T21:13:55.837Z,7.28
2022-10-20T21:19:01.814Z,7.32
2022-10-20T21:24:06.882Z,6.82
2022-10-20T21:29:14.773Z,7.13
2022-10-20T21:34:18.136Z,8.65
2022-10-20T21:39:21.506Z,6.80
2022-10-20T21:44:26.224Z,6.85
2022-10-20T21:49:29.505Z,6.38
2022-10-20T21:54:32.683Z,6.15
2022-10-20T21:59:37.258Z,6.82
2022-10-20T22:04:40.582Z,6.97
2022-10-20T22:09:43.917Z,6.68
2022-10-20T22:14:48.682Z,6.72
2022-10-20T22:19:51.935Z,7.15
2022-10-20T22:24:55.284Z,7.30
2022-10-20T22:29:59.953Z,7.53
2022-10-20T22:35:03.198Z,7.38
2022-10-20T22:40:07.575Z,6.65
2022-10-20T22:45:13.066Z,6.20
2022-10-20T22:50:16.648Z,6.03
2022-10-20T22:55:22.872Z,6.68
2022-10-20T23:00:27.528Z,6.50
2022-10-20T23:05:30.733Z,7.10
2022-10-20T23:10:33.973Z,7.55
2022-10-20T23:15:38.605Z,6.28
2022-10-20T23:20:42.927Z,6.88
2022-10-20T23:25:50.814Z,6.82
2022-10-20T23:31:07.646Z,7.25
2022-10-20T23:36:11.731Z,6.40
2022-10-20T23:41:15.523Z,7.18
2022-10-20T23:46:20.169Z,7.25
2022-10-20T23:51:23.429Z,7.65
2022-10-20T23:56:26.705Z,6.25
